Time;durP1;ratioP1;P1;durP2;ratioP2;P2;SDS_P1;SDS_P2;PMS_P1;PMS_P2;Temp;Humidity;BMP_temperature;BMP_pressure;BME280_temperature;BME280_humidity;BME280_pressure;Samples;Min_cycle;Max_cycle;Signal;HPM_P1;HPM_P2
2021/08/12 00:01:08;;;;;;;9.65;4.60;;;;;;;;;;5156048;27;20470;-82
2021/08/12 00:03:34;;;;;;;7.28;4.00;;;;;;;;;;5157049;27;20027;-82
2021/08/12 00:06:00;;;;;;;8.25;3.55;;;;;;;;;;5156622;27;20092;-82
2021/08/12 00:08:26;;;;;;;6.30;2.90;;;;;;;;;;5157013;27;20099;-82
2021/08/12 00:10:52;;;;;;;6.22;3.78;;;;;;;;;;5154494;27;20023;-82
2021/08/12 00:13:19;;;;;;;6.38;2.67;;;;;;;;;;5156746;27;20371;-82
2021/08/12 00:15:44;;;;;;;4.45;1.85;;;;;;;;;;5156840;27;20031;-81
2021/08/12 00:18:10;;;;;;;8.23;3.42;;;;;;;;;;5156602;27;20045;-81
2021/08/12 00:20:36;;;;;;;6.50;4.18;;;;;;;;;;5156771;27;20482;-81
2021/08/12 00:23:02;;;;;;;8.20;3.22;;;;;;;;;;5156186;27;20022;-80
2021/08/12 00:25:27;;;;;;;6.38;2.55;;;;;;;;;;5158297;27;20546;-81
2021/08/12 00:27:53;;;;;;;10.77;3.88;;;;;;;;;;5158776;27;20056;-86
2021/08/12 00:30:19;;;;;;;13.82;4.47;;;;;;;;;;5159049;27;20057;-82
2021/08/12 00:32:44;;;;;;;4.72;2.40;;;;;;;;;;5159914;27;20030;-81
2021/08/12 00:35:10;;;;;;;5.45;2.42;;;;;;;;;;5160108;27;20022;-81
2021/08/12 00:37:36;;;;;;;6.47;3.90;;;;;;;;;;5159828;27;20038;-82
2021/08/12 00:40:02;;;;;;;6.00;2.72;;;;;;;;;;5160918;27;20034;-82
2021/08/12 00:42:28;;;;;;;7.32;4.15;;;;;;;;;;5147493;27;20031;-82
2021/08/12 00:44:53;;;;;;;6.22;3.47;;;;;;;;;;5150673;27;20501;-82
2021/08/12 00:47:19;;;;;;;5.72;2.22;;;;;;;;;;5154030;27;20637;-81
2021/08/12 00:49:45;;;;;;;6.40;2.35;;;;;;;;;;5154007;27;20470;-81
2021/08/12 00:52:11;;;;;;;9.52;3.17;;;;;;;;;;5152947;27;20098;-81
2021/08/12 00:54:40;;;;;;;6.53;3.42;;;;;;;;;;5150602;27;20023;-81
2021/08/12 00:57:08;;;;;;;7.85;3.90;;;;;;;;;;5153923;27;20026;-81
2021/08/12 00:59:38;;;;;;;8.15;2.88;;;;;;;;;;5154009;27;20474;-81
2021/08/12 01:02:09;;;;;;;9.18;3.67;;;;;;;;;;5154777;27;20029;-81
2021/08/12 01:04:39;;;;;;;8.70;3.50;;;;;;;;;;5156107;27;20026;-81
2021/08/12 01:07:25;;;;;;;6.38;4.57;;;;;;;;;;5156107;27;20026;-82
2021/08/12 01:10:14;;;;;;;6.88;3.88;;;;;;;;;;5127245;27;20088;-81
2021/08/12 01:12:58;;;;;;;;;;;;;;;;;;5135322;27;20436;-81
2021/08/12 01:15:37;;;;;;;8.40;4.07;;;;;;;;;;5134821;27;19914;-82
2021/08/12 01:18:19;;;;;;;5.65;2.47;;;;;;;;;;5134917;27;20386;-81
2021/08/12 01:21:15;;;;;;;10.77;4.43;;;;;;;;;;5134960;27;20023;-81
2021/08/12 01:23:41;;;;;;;7.50;3.10;;;;;;;;;;5134714;27;20050;-81
2021/08/12 01:26:09;;;;;;;7.47;3.75;;;;;;;;;;5134979;27;20502;-81
2021/08/12 01:28:46;;;;;;;7.07;4.13;;;;;;;;;;5134636;27;20019;-81
2021/08/12 01:31:40;;;;;;;5.57;3.28;;;;;;;;;;5134766;27;20498;-80
2021/08/12 01:34:14;;;;;;;7.63;3.42;;;;;;;;;;5133930;27;20035;-81
2021/08/12 01:36:42;;;;;;;10.27;4.50;;;;;;;;;;5134680;27;20084;-81
2021/08/12 01:39:13;;;;;;;7.50;4.35;;;;;;;;;;5134411;27;20039;-80
2021/08/12 01:41:40;;;;;;;12.55;3.67;;;;;;;;;;5134882;27;20027;-82
2021/08/12 01:44:06;;;;;;;6.35;3.85;;;;;;;;;;5140553;27;20020;-82
2021/08/12 01:46:34;;;;;;;6.22;2.95;;;;;;;;;;5145245;27;20015;-82
2021/08/12 01:49:02;;;;;;;6.45;3.35;;;;;;;;;;5147630;27;20027;-81
2021/08/12 01:51:29;;;;;;;7.00;3.33;;;;;;;;;;5143234;27;20024;-81
2021/08/12 01:53:57;;;;;;;6.45;3.60;;;;;;;;;;5135012;28;20104;-81
2021/08/12 01:56:24;;;;;;;4.72;2.22;;;;;;;;;;5135505;27;20031;-82
2021/08/12 01:58:51;;;;;;;6.55;2.38;;;;;;;;;;5135438;27;20060;-81
2021/08/12 02:01:18;;;;;;;7.88;2.22;;;;;;;;;;5134463;27;20019;-81
2021/08/12 02:03:46;;;;;;;6.10;4.15;;;;;;;;;;5134696;27;20068;-81
2021/08/12 02:06:13;;;;;;;7.05;3.72;;;;;;;;;;5135366;27;20048;-81
2021/08/12 02:08:39;;;;;;;6.22;3.10;;;;;;;;;;5138928;27;20031;-82
2021/08/12 02:11:04;;;;;;;7.50;2.60;;;;;;;;;;5138856;27;20031;-82
2021/08/12 02:13:31;;;;;;;5.82;3.42;;;;;;;;;;5138807;27;20027;-81
2021/08/12 02:15:56;;;;;;;5.10;3.65;;;;;;;;;;5138413;27;20042;-81
2021/08/12 02:18:22;;;;;;;7.65;3.38;;;;;;;;;;5137250;27;20020;-81
2021/08/12 02:20:53;;;;;;;4.65;2.20;;;;;;;;;;5138206;27;20147;-81
2021/08/12 02:23:27;;;;;;;6.13;3.67;;;;;;;;;;5136927;27;20059;-81
2021/08/12 02:26:05;;;;;;;6.53;3.92;;;;;;;;;;5138641;27;20019;-81
2021/08/12 02:28:33;;;;;;;7.32;2.53;;;;;;;;;;5138529;27;20023;-81
2021/08/12 02:31:01;;;;;;;8.68;2.78;;;;;;;;;;5137797;27;20027;-81
2021/08/12 02:33:31;;;;;;;7.60;4.30;;;;;;;;;;5137970;27;20027;-82
2021/08/12 02:35:57;;;;;;;5.25;2.78;;;;;;;;;;5138532;27;20023;-81
2021/08/12 02:38:25;;;;;;;8.23;4.60;;;;;;;;;;5136505;27;20023;-82
2021/08/12 02:40:52;;;;;;;6.50;4.15;;;;;;;;;;5136605;27;20138;-81
2021/08/12 02:43:20;;;;;;;6.80;2.75;;;;;;;;;;5138341;27;20033;-81
2021/08/12 02:45:47;;;;;;;7.68;3.30;;;;;;;;;;5137707;27;20022;-81
2021/08/12 02:48:14;;;;;;;6.35;3.47;;;;;;;;;;5137667;27;20019;-81
2021/08/12 02:50:43;;;;;;;8.30;3.08;;;;;;;;;;5137486;27;20504;-81
2021/08/12 02:53:09;;;;;;;5.30;3.08;;;;;;;;;;5137669;27;20023;-81
2021/08/12 02:55:36;;;;;;;4.72;2.33;;;;;;;;;;5137530;27;20038;-81
2021/08/12 02:58:04;;;;;;;9.43;3.70;;;;;;;;;;5137427;27;20058;-81
2021/08/12 03:00:30;;;;;;;6.22;3.08;;;;;;;;;;5136140;27;20429;-80
2021/08/12 03:02:57;;;;;;;8.25;4.28;;;;;;;;;;5137353;27;20463;-80
2021/08/12 03:05:24;;;;;;;5.05;2.47;;;;;;;;;;5137462;27;20474;-80
2021/08/12 03:07:50;;;;;;;7.32;3.25;;;;;;;;;;5136047;27;20019;-81
2021/08/12 03:10:19;;;;;;;8.05;3.50;;;;;;;;;;5137162;27;20115;-81
2021/08/12 03:12:47;;;;;;;5.35;3.30;;;;;;;;;;5137295;27;20553;-80
2021/08/12 03:15:13;;;;;;;12.20;3.95;;;;;;;;;;5137132;27;20416;-81
2021/08/12 03:17:39;;;;;;;9.23;4.18;;;;;;;;;;5137193;27;20094;-81
2021/08/12 03:20:10;;;;;;;7.68;4.35;;;;;;;;;;5136693;27;20055;-80
2021/08/12 03:22:35;;;;;;;6.47;3.25;;;;;;;;;;5137071;27;20034;-80
2021/08/12 03:25:01;;;;;;;7.88;3.65;;;;;;;;;;5136983;27;20019;-80
2021/08/12 03:27:27;;;;;;;6.55;2.45;;;;;;;;;;5136974;27;20030;-80
2021/08/12 03:29:52;;;;;;;9.82;4.75;;;;;;;;;;5136867;27;20113;-80
2021/08/12 03:32:19;;;;;;;7.60;4.30;;;;;;;;;;5136807;27;20031;-80
2021/08/12 03:34:45;;;;;;;7.07;3.58;;;;;;;;;;5136815;27;20023;-80
2021/08/12 03:37:11;;;;;;;9.88;4.50;;;;;;;;;;5136940;27;20023;-81
2021/08/12 03:39:37;;;;;;;8.02;4.68;;;;;;;;;;5136476;27;20088;-80
2021/08/12 03:42:03;;;;;;;8.65;3.42;;;;;;;;;;5136744;27;20493;-81
2021/08/12 03:44:28;;;;;;;8.10;3.20;;;;;;;;;;5136767;27;20101;-81
2021/08/12 03:46:54;;;;;;;10.27;4.25;;;;;;;;;;5136515;27;20062;-80
2021/08/12 03:49:20;;;;;;;10.05;3.80;;;;;;;;;;5137053;27;20420;-80
2021/08/12 03:51:46;;;;;;;9.05;4.07;;;;;;;;;;5136731;27;20023;-80
2021/08/12 03:54:12;;;;;;;5.75;3.67;;;;;;;;;;5136963;27;20019;-80
2021/08/12 03:56:39;;;;;;;12.60;3.75;;;;;;;;;;5152452;27;20139;-81
2021/08/12 03:59:05;;;;;;;6.57;3.97;;;;;;;;;;5136772;27;20023;-81
2021/08/12 04:01:32;;;;;;;9.65;4.25;;;;;;;;;;5137188;27;20057;-80
2021/08/12 04:03:58;;;;;;;9.65;3.92;;;;;;;;;;5136982;27;20628;-80
2021/08/12 04:24:35;;;;;;;6.25;3.15;;;;;;;;;;5111771;27;20229;-79
2021/08/12 04:27:00;;;;;;;6.57;3.97;;;;;;;;;;5111376;28;20395;-79
2021/08/12 04:29:26;;;;;;;4.70;2.38;;;;;;;;;;5111353;28;20437;-80
2021/08/12 04:31:52;;;;;;;11.77;6.35;;;;;;;;;;5109994;28;20020;-79
2021/08/12 04:34:17;;;;;;;9.88;6.60;;;;;;;;;;5111277;28;20031;-80
2021/08/12 04:36:43;;;;;;;7.45;5.82;;;;;;;;;;5111184;28;20055;-80
2021/08/12 04:39:09;;;;;;;8.90;6.32;;;;;;;;;;5111152;28;20062;-80
2021/08/12 04:41:35;;;;;;;6.82;6.13;;;;;;;;;;5111181;28;20090;-80
2021/08/12 04:44:01;;;;;;;9.48;4.97;;;;;;;;;;5111129;28;20063;-80
2021/08/12 04:46:27;;;;;;;4.60;3.90;;;;;;;;;;5110967;28;20462;-80
2021/08/12 04:48:52;;;;;;;7.70;5.78;;;;;;;;;;5110841;28;20084;-80
2021/08/12 04:51:18;;;;;;;4.95;2.53;;;;;;;;;;5110986;28;20027;-80
2021/08/12 04:53:44;;;;;;;8.68;6.13;;;;;;;;;;5111368;28;20028;-80
2021/08/12 04:56:10;;;;;;;11.10;2.53;;;;;;;;;;5111280;28;20539;-81
2021/08/12 04:58:35;;;;;;;8.95;7.93;;;;;;;;;;5111129;28;20028;-81
2021/08/12 05:01:01;;;;;;;4.97;1.98;;;;;;;;;;5110348;28;20494;-80
2021/08/12 05:03:27;;;;;;;5.93;5.32;;;;;;;;;;5110196;28;20023;-80
2021/08/12 05:06:11;;;;;;;8.50;5.70;;;;;;;;;;5108806;28;20023;-80
2021/08/12 05:08:37;;;;;;;7.50;6.75;;;;;;;;;;5107369;28;20019;-81
2021/08/12 05:11:07;;;;;;;11.82;6.50;;;;;;;;;;5110020;28;20475;-80
2021/08/12 05:13:33;;;;;;;6.78;5.65;;;;;;;;;;5110063;28;20057;-80
2021/08/12 05:15:59;;;;;;;6.25;2.53;;;;;;;;;;5109811;28;20027;-82
2021/08/12 05:18:24;;;;;;;8.85;5.57;;;;;;;;;;5109823;28;20022;-81
2021/08/12 05:20:50;;;;;;;7.63;2.38;;;;;;;;;;5109803;28;20095;-81
2021/08/12 05:23:17;;;;;;;9.43;5.95;;;;;;;;;;5108763;28;20132;-82
2021/08/12 05:25:44;;;;;;;7.53;6.18;;;;;;;;;;5096091;28;20026;-81
2021/08/12 05:28:11;;;;;;;10.25;5.40;;;;;;;;;;5096358;28;20074;-81
2021/08/12 05:30:37;;;;;;;8.50;5.60;;;;;;;;;;5096536;28;20038;-81
2021/08/12 05:33:03;;;;;;;8.38;6.25;;;;;;;;;;5096633;28;20032;-81
2021/08/12 05:35:28;;;;;;;6.30;3.72;;;;;;;;;;5096900;28;20100;-81
2021/08/12 05:37:54;;;;;;;7.47;6.13;;;;;;;;;;5096365;28;20035;-81
2021/08/12 05:40:19;;;;;;;8.35;4.20;;;;;;;;;;5096303;28;20439;-81
2021/08/12 05:42:45;;;;;;;8.15;5.95;;;;;;;;;;5096392;28;20468;-80
2021/08/12 05:45:11;;;;;;;7.68;5.28;;;;;;;;;;5096371;28;20103;-81
2021/08/12 05:47:37;;;;;;;7.18;5.70;;;;;;;;;;5096243;28;20032;-80
2021/08/12 05:50:03;;;;;;;7.78;6.32;;;;;;;;;;5096397;28;20032;-81
2021/08/12 05:52:29;;;;;;;9.32;4.05;;;;;;;;;;5096161;28;20107;-81
2021/08/12 05:54:54;;;;;;;7.35;4.97;;;;;;;;;;5096222;28;20111;-80
2021/08/12 05:57:20;;;;;;;6.63;3.28;;;;;;;;;;5096049;28;20099;-82
2021/08/12 05:59:46;;;;;;;10.25;5.88;;;;;;;;;;5095910;28;20047;-81
2021/08/12 06:02:12;;;;;;;8.35;4.70;;;;;;;;;;5096118;28;20032;-81
2021/08/12 06:04:37;;;;;;;11.38;5.00;;;;;;;;;;5095909;28;20020;-80
2021/08/12 06:07:03;;;;;;;9.45;4.85;;;;;;;;;;5096429;28;20489;-81
2021/08/12 06:09:29;;;;;;;9.90;5.22;;;;;;;;;;5095869;28;20024;-81
2021/08/12 06:11:55;;;;;;;12.63;4.68;;;;;;;;;;5094343;28;20032;-80
2021/08/12 06:14:20;;;;;;;8.50;4.97;;;;;;;;;;5095840;28;20032;-81
2021/08/12 06:16:46;;;;;;;8.60;4.55;;;;;;;;;;5095614;28;20028;-81
2021/08/12 06:19:12;;;;;;;8.63;4.47;;;;;;;;;;5095529;28;20027;-81
2021/08/12 06:21:37;;;;;;;7.45;3.83;;;;;;;;;;5095563;28;20020;-81
2021/08/12 06:24:03;;;;;;;12.02;5.55;;;;;;;;;;5095231;28;20051;-81
2021/08/12 06:26:29;;;;;;;6.78;3.40;;;;;;;;;;5094985;28;20024;-88
2021/08/12 06:28:54;;;;;;;8.82;3.75;;;;;;;;;;5095126;28;20016;-83
2021/08/12 06:31:20;;;;;;;9.52;3.30;;;;;;;;;;5094961;28;20044;-83
2021/08/12 06:33:46;;;;;;;9.73;3.70;;;;;;;;;;5093638;28;20344;-81
2021/08/12 06:36:12;;;;;;;13.60;4.50;;;;;;;;;;5093941;28;20028;-83
2021/08/12 06:38:38;;;;;;;7.65;3.63;;;;;;;;;;5094625;28;20020;-79
2021/08/12 06:41:03;;;;;;;7.68;4.38;;;;;;;;;;5094628;28;20023;-78
2021/08/12 06:43:29;;;;;;;16.10;5.82;;;;;;;;;;5094410;28;20105;-77
2021/08/12 06:45:55;;;;;;;9.63;5.13;;;;;;;;;;5094534;28;20391;-79
2021/08/12 06:48:21;;;;;;;10.88;4.97;;;;;;;;;;5093075;28;20026;-78
2021/08/12 06:50:47;;;;;;;9.70;3.15;;;;;;;;;;5094398;28;20086;-79
2021/08/12 06:53:13;;;;;;;8.57;3.65;;;;;;;;;;5094648;28;20020;-81
2021/08/12 06:55:38;;;;;;;8.48;2.80;;;;;;;;;;5094865;28;20024;-82
2021/08/12 06:58:04;;;;;;;6.80;2.67;;;;;;;;;;5094885;28;20024;-83
2021/08/12 07:00:30;;;;;;;9.68;3.80;;;;;;;;;;5093289;28;20016;-83
2021/08/12 07:02:56;;;;;;;5.28;2.45;;;;;;;;;;5094087;28;20024;-81
2021/08/12 07:05:22;;;;;;;6.15;4.03;;;;;;;;;;5094274;28;20435;-82
2021/08/12 07:07:48;;;;;;;6.70;3.67;;;;;;;;;;5093224;28;20088;-87
2021/08/12 07:10:14;;;;;;;7.13;3.58;;;;;;;;;;5093294;28;20024;-90
2021/08/12 07:12:39;;;;;;;7.13;3.65;;;;;;;;;;5094134;28;20023;-85
2021/08/12 07:15:06;;;;;;;5.32;3.70;;;;;;;;;;5094464;28;20031;-88
2021/08/12 07:17:35;;;;;;;5.80;2.95;;;;;;;;;;5094654;28;20024;-87
2021/08/12 07:20:00;;;;;;;8.25;2.80;;;;;;;;;;5096415;28;20580;-89
2021/08/12 07:22:26;;;;;;;12.00;3.63;;;;;;;;;;5096859;28;20047;-90
2021/08/12 07:24:52;;;;;;;7.90;2.88;;;;;;;;;;5096361;28;20017;-88
2021/08/12 07:27:17;;;;;;;7.10;3.25;;;;;;;;;;5128318;27;20024;-88
2021/08/12 07:29:43;;;;;;;7.53;3.75;;;;;;;;;;5094611;28;20024;-83
2021/08/12 07:32:10;;;;;;;5.28;2.17;;;;;;;;;;5094086;28;20383;-81
2021/08/12 07:34:36;;;;;;;6.40;2.97;;;;;;;;;;5094294;28;20077;-82
2021/08/12 07:37:03;;;;;;;6.18;2.85;;;;;;;;;;5094318;28;20020;-82
2021/08/12 07:39:28;;;;;;;4.97;2.90;;;;;;;;;;5094147;28;20076;-82
2021/08/12 07:41:54;;;;;;;5.25;2.90;;;;;;;;;;5093961;28;20024;-82
2021/08/12 07:44:20;;;;;;;4.57;2.28;;;;;;;;;;5094046;28;20107;-81
2021/08/12 07:46:45;;;;;;;10.35;2.38;;;;;;;;;;5093815;28;20493;-81
2021/08/12 07:49:11;;;;;;;5.95;2.58;;;;;;;;;;5093966;28;20043;-81
2021/08/12 07:51:37;;;;;;;7.20;2.78;;;;;;;;;;5094159;28;20434;-81
2021/08/12 07:54:03;;;;;;;5.75;2.85;;;;;;;;;;5094024;28;20119;-82
2021/08/12 07:56:28;;;;;;;6.05;3.22;;;;;;;;;;5094137;28;20100;-82
2021/08/12 07:58:54;;;;;;;8.70;2.95;;;;;;;;;;5093868;28;20042;-81
2021/08/12 08:01:20;;;;;;;6.57;3.47;;;;;;;;;;5093790;28;20483;-82
2021/08/12 08:03:46;;;;;;;12.27;3.35;;;;;;;;;;5093959;28;20031;-81
2021/08/12 08:06:12;;;;;;;7.03;3.10;;;;;;;;;;5092720;28;20407;-81
2021/08/12 08:08:38;;;;;;;8.95;3.70;;;;;;;;;;5093924;28;20020;-81
2021/08/12 08:11:04;;;;;;;7.80;3.45;;;;;;;;;;5093988;28;20073;-81
2021/08/12 08:13:31;;;;;;;8.52;2.88;;;;;;;;;;5093976;28;20474;-81
2021/08/12 08:15:58;;;;;;;7.03;3.50;;;;;;;;;;5094230;28;20031;-82
2021/08/12 08:18:25;;;;;;;7.80;3.15;;;;;;;;;;5092480;28;20107;-81
2021/08/12 08:20:51;;;;;;;6.13;2.45;;;;;;;;;;5092370;28;20023;-82
2021/08/12 08:23:17;;;;;;;7.32;3.78;;;;;;;;;;5093315;28;20411;-82
2021/08/12 08:25:42;;;;;;;7.45;3.50;;;;;;;;;;5093660;28;20468;-82
2021/08/12 08:28:08;;;;;;;6.20;3.45;;;;;;;;;;5093424;28;20020;-82
2021/08/12 08:30:35;;;;;;;11.98;3.55;;;;;;;;;;5093488;28;20024;-81
2021/08/12 08:33:02;;;;;;;7.18;3.67;;;;;;;;;;5093461;28;20102;-81
2021/08/12 08:35:29;;;;;;;8.25;3.47;;;;;;;;;;5093398;28;20081;-82
2021/08/12 08:37:55;;;;;;;6.50;2.80;;;;;;;;;;5093398;28;20103;-81
2021/08/12 08:40:22;;;;;;;5.95;3.35;;;;;;;;;;5093387;28;20050;-81
2021/08/12 08:42:48;;;;;;;7.97;2.63;;;;;;;;;;5093441;28;20063;-81
2021/08/12 08:45:26;;;;;;;7.30;2.95;;;;;;;;;;5094612;28;20118;-82
2021/08/12 08:47:53;;;;;;;6.38;2.95;;;;;;;;;;5096167;28;20479;-82
2021/08/12 08:50:21;;;;;;;8.27;2.92;;;;;;;;;;5103025;28;20050;-81
2021/08/12 08:52:48;;;;;;;7.60;2.55;;;;;;;;;;5109903;28;20020;-82
2021/08/12 08:55:20;;;;;;;5.65;2.53;;;;;;;;;;5104142;28;20021;-81
2021/08/12 08:57:49;;;;;;;6.05;2.85;;;;;;;;;;5094837;28;20020;-81
2021/08/12 09:00:16;;;;;;;5.00;2.72;;;;;;;;;;5095571;28;20028;-82
2021/08/12 09:02:43;;;;;;;6.70;3.35;;;;;;;;;;5096228;28;20099;-82
2021/08/12 09:05:09;;;;;;;6.07;2.03;;;;;;;;;;5095781;28;20107;-82
2021/08/12 09:07:36;;;;;;;6.55;3.60;;;;;;;;;;5095494;28;20074;-82
2021/08/12 09:10:02;;;;;;;7.68;1.90;;;;;;;;;;5095434;28;20036;-82
2021/08/12 09:12:30;;;;;;;6.18;2.85;;;;;;;;;;5096044;28;20024;-85
2021/08/12 09:15:09;;;;;;;9.07;3.88;;;;;;;;;;5094641;28;20097;-85
2021/08/12 09:17:35;;;;;;;7.35;3.10;;;;;;;;;;5096953;28;20488;-85
2021/08/12 09:20:15;;;;;;;6.35;3.13;;;;;;;;;;5096730;28;20031;-83
2021/08/12 09:23:00;;;;;;;5.65;2.95;;;;;;;;;;5096727;28;20052;-83
2021/08/12 09:25:42;;;;;;;7.43;2.67;;;;;;;;;;5092832;28;20028;-83
2021/08/12 09:28:26;;;;;;;6.15;2.28;;;;;;;;;;5084488;28;20095;-83
2021/08/12 09:30:57;;;;;;;6.05;2.65;;;;;;;;;;5076029;28;20028;-82
2021/08/12 09:33:24;;;;;;;6.13;3.45;;;;;;;;;;5075427;28;20025;-80
2021/08/12 09:35:50;;;;;;;7.20;2.95;;;;;;;;;;5075944;28;20035;-79
2021/08/12 09:38:15;;;;;;;6.60;2.17;;;;;;;;;;5075698;28;20025;-80
2021/08/12 09:40:45;;;;;;;5.30;2.55;;;;;;;;;;5075575;28;20054;-78
2021/08/12 09:43:11;;;;;;;5.35;2.15;;;;;;;;;;5075590;28;20032;-80
2021/08/12 09:45:39;;;;;;;8.30;3.78;;;;;;;;;;5076003;28;20021;-88
2021/08/12 09:48:12;;;;;;;4.63;2.85;;;;;;;;;;5074934;28;20033;-82
2021/08/12 09:50:39;;;;;;;6.65;2.10;;;;;;;;;;5074103;28;20369;-82
2021/08/12 09:53:06;;;;;;;6.30;2.22;;;;;;;;;;5076080;28;20111;-82
2021/08/12 09:55:40;;;;;;;7.70;3.20;;;;;;;;;;5073982;28;20475;-83
2021/08/12 09:58:05;;;;;;;7.53;3.83;;;;;;;;;;5076211;28;20043;-84
2021/08/12 10:00:38;;;;;;;11.18;4.18;;;;;;;;;;5076276;28;20025;-84
2021/08/12 10:03:30;;;;;;;8.13;2.90;;;;;;;;;;5075773;28;20047;-82
2021/08/12 10:05:57;;;;;;;5.13;1.95;;;;;;;;;;5074509;28;20031;-84
2021/08/12 10:08:27;;;;;;;7.70;3.30;;;;;;;;;;5075679;28;20017;-85
2021/08/12 10:10:55;;;;;;;5.03;2.55;;;;;;;;;;5075437;28;20028;-86
2021/08/12 10:13:21;;;;;;;5.75;1.90;;;;;;;;;;5074298;28;20086;-86
2021/08/12 10:15:50;;;;;;;4.65;2.25;;;;;;;;;;5075657;28;20388;-86
2021/08/12 10:18:19;;;;;;;5.07;2.15;;;;;;;;;;5075333;28;20074;-85
2021/08/12 10:20:46;;;;;;;7.15;3.53;;;;;;;;;;5075313;28;20074;-89
2021/08/12 10:23:13;;;;;;;4.55;1.52;;;;;;;;;;5075276;28;20053;-90
2021/08/12 10:25:40;;;;;;;7.18;2.35;;;;;;;;;;5076706;28;20078;-91
2021/08/12 10:28:08;;;;;;;6.15;2.25;;;;;;;;;;5076581;28;20073;-89
2021/08/12 10:30:35;;;;;;;4.97;2.95;;;;;;;;;;5076244;28;20059;-88
2021/08/12 10:33:06;;;;;;;6.28;2.63;;;;;;;;;;5077334;28;20021;-89
2021/08/12 10:35:34;;;;;;;5.95;1.60;;;;;;;;;;5079516;28;20024;-91
2021/08/12 10:38:01;;;;;;;4.22;1.27;;;;;;;;;;5078972;28;20020;-90
2021/08/12 10:40:30;;;;;;;4.63;3.47;;;;;;;;;;5077154;28;20029;-89
2021/08/12 10:42:58;;;;;;;5.78;2.60;;;;;;;;;;5076557;28;20037;-84
2021/08/12 10:45:25;;;;;;;6.40;2.65;;;;;;;;;;5074998;28;20032;-83
2021/08/12 10:47:55;;;;;;;5.50;2.83;;;;;;;;;;5074949;28;20048;-82
2021/08/12 10:50:30;;;;;;;6.45;3.95;;;;;;;;;;5075029;28;20388;-83
2021/08/12 10:53:11;;;;;;;6.57;3.33;;;;;;;;;;5076556;28;20111;-83
2021/08/12 10:55:48;;;;;;;5.30;2.47;;;;;;;;;;5075505;28;20468;-83
2021/08/12 10:58:25;;;;;;;8.20;3.75;;;;;;;;;;5074791;28;20031;-82
2021/08/12 11:00:58;;;;;;;8.65;3.75;;;;;;;;;;5074153;28;20108;-82
2021/08/12 11:03:33;;;;;;;9.27;3.83;;;;;;;;;;5074943;28;20060;-82
2021/08/12 11:06:21;;;;;;;5.15;2.72;;;;;;;;;;5075198;28;20032;-83
2021/08/12 11:08:56;;;;;;;;;;;;;;;;;;5074898;28;20028;-82
2021/08/12 11:11:25;;;;;;;7.28;2.65;;;;;;;;;;5074394;28;20436;-82
2021/08/12 11:13:59;;;;;;;5.90;2.25;;;;;;;;;;5074259;28;20037;-84
2021/08/12 11:16:49;;;;;;;6.32;1.98;;;;;;;;;;5074502;28;20024;-84
2021/08/12 11:19:21;;;;;;;5.28;2.65;;;;;;;;;;5068990;28;20032;-84
2021/08/12 11:21:47;;;;;;;6.05;2.03;;;;;;;;;;5073183;28;20495;-86
2021/08/12 11:24:25;;;;;;;7.13;4.70;;;;;;;;;;5073823;28;20127;-83
2021/08/12 11:26:51;;;;;;;33.42;23.48;;;;;;;;;;5074142;28;20388;-85
2021/08/12 11:29:22;;;;;;;9.55;5.75;;;;;;;;;;5074208;28;20017;-83
2021/08/12 11:31:48;;;;;;;7.72;3.33;;;;;;;;;;5074208;28;20415;-84
2021/08/12 11:34:23;;;;;;;15.15;8.35;;;;;;;;;;5072507;28;20040;-83
2021/08/12 11:37:20;;;;;;;6.50;3.15;;;;;;;;;;5074167;28;20035;-84
2021/08/12 11:39:45;;;;;;;12.52;6.05;;;;;;;;;;5072649;28;20027;-84
2021/08/12 11:42:23;;;;;;;121.97;52.33;;;;;;;;;;5073180;28;20095;-83
2021/08/12 11:44:50;;;;;;;96.15;51.33;;;;;;;;;;5073995;28;20029;-83
2021/08/12 11:47:16;;;;;;;17.92;9.77;;;;;;;;;;5073786;28;20020;-82
2021/08/12 11:49:49;;;;;;;9.00;4.15;;;;;;;;;;5073935;28;20446;-81
2021/08/12 11:52:25;;;;;;;7.25;3.55;;;;;;;;;;5073699;28;20071;-81
2021/08/12 11:54:55;;;;;;;6.28;2.95;;;;;;;;;;5074156;28;20028;-81
2021/08/12 11:57:37;;;;;;;7.03;2.83;;;;;;;;;;5073798;28;20040;-81
2021/08/12 12:00:14;;;;;;;8.80;3.88;;;;;;;;;;5073094;28;20103;-81
2021/08/12 12:02:52;;;;;;;6.70;2.90;;;;;;;;;;5080304;28;20055;-80
2021/08/12 12:05:20;;;;;;;9.38;3.25;;;;;;;;;;5079506;28;20027;-80
2021/08/12 12:07:48;;;;;;;12.25;6.55;;;;;;;;;;5073511;28;20021;-81
2021/08/12 12:10:25;;;;;;;8.38;4.50;;;;;;;;;;5076076;28;20099;-80
2021/08/12 12:12:51;;;;;;;7.47;3.45;;;;;;;;;;5082233;28;20043;-80
2021/08/12 12:15:37;;;;;;;20.55;12.80;;;;;;;;;;5074194;28;20021;-80
2021/08/12 12:18:03;;;;;;;8.80;3.47;;;;;;;;;;5073598;28;20077;-80
2021/08/12 12:20:29;;;;;;;10.85;4.85;;;;;;;;;;5073067;28;20430;-80
2021/08/12 12:23:03;;;;;;;6.78;3.47;;;;;;;;;;5071738;28;20145;-79
2021/08/12 12:25:31;;;;;;;34.63;19.02;;;;;;;;;;5073603;28;20016;-80
2021/08/12 12:27:58;;;;;;;7.07;4.43;;;;;;;;;;5079890;28;20537;-82
2021/08/12 12:30:29;;;;;;;9.20;3.75;;;;;;;;;;5081575;28;20077;-85
2021/08/12 12:33:01;;;;;;;6.40;4.68;;;;;;;;;;5082672;28;20500;-80
2021/08/12 12:35:28;;;;;;;11.18;4.25;;;;;;;;;;5081946;28;20020;-79
2021/08/12 12:37:54;;;;;;;7.15;4.03;;;;;;;;;;5084836;28;20059;-81
2021/08/12 12:40:22;;;;;;;8.88;2.92;;;;;;;;;;5083840;28;20063;-80
2021/08/12 12:42:52;;;;;;;6.07;2.88;;;;;;;;;;5095610;28;20036;-79
2021/08/12 12:45:18;;;;;;;5.97;2.65;;;;;;;;;;5080356;28;20032;-79
2021/08/12 12:47:44;;;;;;;18.33;11.70;;;;;;;;;;5075185;28;20025;-79
2021/08/12 12:50:17;;;;;;;8.15;4.93;;;;;;;;;;5073815;28;20025;-78
2021/08/12 12:53:03;;;;;;;8.90;2.88;;;;;;;;;;5075003;28;20021;-79
2021/08/12 12:55:34;;;;;;;7.45;3.45;;;;;;;;;;5074950;28;20029;-78
2021/08/12 12:58:16;;;;;;;9.23;2.28;;;;;;;;;;5074777;28;20468;-79
2021/08/12 13:00:43;;;;;;;5.75;2.38;;;;;;;;;;5073613;28;20016;-78
2021/08/12 13:03:10;;;;;;;9.48;3.30;;;;;;;;;;5075772;28;20028;-78
2021/08/12 13:05:54;;;;;;;8.77;3.28;;;;;;;;;;5076648;28;20024;-78
2021/08/12 13:08:20;;;;;;;8.05;3.05;;;;;;;;;;5076869;28;20024;-78
2021/08/12 13:11:09;;;;;;;7.80;2.63;;;;;;;;;;5076624;28;20480;-78
2021/08/12 13:13:36;;;;;;;7.25;2.42;;;;;;;;;;5076754;28;20500;-78
2021/08/12 13:16:06;;;;;;;8.15;3.40;;;;;;;;;;5076720;28;20392;-79
2021/08/12 13:18:48;;;;;;;11.88;3.60;;;;;;;;;;5078595;28;20020;-78
2021/08/12 13:21:38;;;;;;;8.52;3.60;;;;;;;;;;5086234;28;20024;-78
2021/08/12 13:24:07;;;;;;;7.95;2.92;;;;;;;;;;5094894;28;20045;-78
2021/08/12 13:26:41;;;;;;;5.38;2.03;;;;;;;;;;5087219;28;20020;-78
2021/08/12 13:29:17;;;;;;;7.40;3.53;;;;;;;;;;5076781;28;20024;-77
2021/08/12 13:31:49;;;;;;;6.00;3.80;;;;;;;;;;5076627;28;20480;-78
2021/08/12 13:34:15;;;;;;;11.70;3.53;;;;;;;;;;5075353;28;20380;-78
2021/08/12 13:36:42;;;;;;;8.50;3.38;;;;;;;;;;5076243;28;20032;-78
2021/08/12 13:39:09;;;;;;;9.82;3.60;;;;;;;;;;5076211;28;20384;-78
2021/08/12 13:42:04;;;;;;;5.50;1.98;;;;;;;;;;5076108;28;20487;-78
2021/08/12 13:44:31;;;;;;;6.70;3.00;;;;;;;;;;5066757;28;20048;-78
2021/08/12 13:46:59;;;;;;;11.57;3.80;;;;;;;;;;5075953;28;20081;-78
2021/08/12 13:49:26;;;;;;;8.52;3.67;;;;;;;;;;5075897;28;20035;-78
2021/08/12 13:51:54;;;;;;;7.47;2.80;;;;;;;;;;5075899;28;20032;-78
2021/08/12 13:54:20;;;;;;;6.45;3.75;;;;;;;;;;5075892;28;20024;-77
2021/08/12 13:56:46;;;;;;;5.88;3.15;;;;;;;;;;5075729;28;20112;-77
2021/08/12 13:59:12;;;;;;;6.07;3.17;;;;;;;;;;5075725;28;20029;-78
2021/08/12 14:01:38;;;;;;;7.03;3.95;;;;;;;;;;5075840;28;20031;-77
2021/08/12 14:04:05;;;;;;;6.93;3.30;;;;;;;;;;5075570;28;20522;-77
2021/08/12 14:06:31;;;;;;;6.18;3.17;;;;;;;;;;5075616;28;20028;-77
2021/08/12 14:08:57;;;;;;;7.63;3.10;;;;;;;;;;5075581;28;20024;-77
2021/08/12 14:11:23;;;;;;;10.50;3.85;;;;;;;;;;5075618;28;20361;-78
2021/08/12 14:13:49;;;;;;;6.72;3.60;;;;;;;;;;5075437;28;20056;-78
2021/08/12 14:16:16;;;;;;;5.35;3.70;;;;;;;;;;5075902;28;20042;-78
2021/08/12 14:18:44;;;;;;;5.80;2.38;;;;;;;;;;5075320;28;20016;-78
2021/08/12 14:21:14;;;;;;;4.78;2.53;;;;;;;;;;5075198;28;20028;-78
2021/08/12 14:23:40;;;;;;;4.68;2.60;;;;;;;;;;5074961;28;20040;-78
2021/08/12 14:26:07;;;;;;;4.30;2.05;;;;;;;;;;5075114;28;20025;-78
2021/08/12 14:28:33;;;;;;;9.55;3.45;;;;;;;;;;5074260;28;20029;-78
2021/08/12 14:31:01;;;;;;;7.47;3.88;;;;;;;;;;5073816;28;20387;-78
2021/08/12 14:33:30;;;;;;;7.93;2.85;;;;;;;;;;5075057;28;20384;-78
2021/08/12 14:36:00;;;;;;;;;;;;;;;;;;5075339;28;20037;-78
2021/08/12 14:38:26;;;;;;;7.20;2.53;;;;;;;;;;5075275;28;20328;-78
2021/08/12 14:40:52;;;;;;;9.30;3.60;;;;;;;;;;5075031;28;20021;-78
2021/08/12 14:43:18;;;;;;;7.85;3.15;;;;;;;;;;5074753;28;20468;-78
2021/08/12 14:45:43;;;;;;;6.40;3.25;;;;;;;;;;5074972;28;20059;-78
2021/08/12 14:48:09;;;;;;;5.55;2.58;;;;;;;;;;5074732;28;20371;-77
2021/08/12 14:50:34;;;;;;;6.28;2.45;;;;;;;;;;5074654;28;20036;-78
2021/08/12 14:53:00;;;;;;;12.63;4.50;;;;;;;;;;5074832;28;20052;-79
2021/08/12 14:55:26;;;;;;;14.10;3.63;;;;;;;;;;5074477;28;20056;-78
2021/08/12 14:57:51;;;;;;;8.95;4.35;;;;;;;;;;5073896;28;20048;-78
2021/08/12 15:00:17;;;;;;;10.90;3.70;;;;;;;;;;5074712;28;20024;-78
2021/08/12 15:02:43;;;;;;;8.48;3.15;;;;;;;;;;5074294;28;20024;-78
2021/08/12 15:05:09;;;;;;;11.30;7.25;;;;;;;;;;5074388;28;20090;-78
2021/08/12 15:07:35;;;;;;;10.65;4.03;;;;;;;;;;5074370;28;20023;-78
2021/08/12 15:10:00;;;;;;;9.45;5.97;;;;;;;;;;5074388;28;20016;-78